sensor_id;sensor_type;location;lat;lon;timestamp;P1;durP1;ratioP1;P2;durP2;ratioP2
23990;SDS011;12205;50.600;4.608;2023-05-07T00:00:40;6.32;;;1.13;;
23990;SDS011;12205;50.600;4.608;2023-05-07T00:03:08;4.47;;;1.10;;
23990;SDS011;12205;50.600;4.608;2023-05-07T00:05:36;7.75;;;1.30;;
23990;SDS011;12205;50.600;4.608;2023-05-07T00:08:04;6.05;;;1.25;;
23990;SDS011;12205;50.600;4.608;2023-05-07T00:10:31;3.55;;;1.10;;
23990;SDS011;12205;50.600;4.608;2023-05-07T00:12:59;6.70;;;1.30;;
23990;SDS011;12205;50.600;4.608;2023-05-07T00:15:26;6.00;;;1.40;;
23990;SDS011;12205;50.600;4.608;2023-05-07T00:17:53;7.40;;;1.30;;
23990;SDS011;12205;50.600;4.608;2023-05-07T00:20:20;8.75;;;1.25;;
23990;SDS011;12205;50.600;4.608;2023-05-07T00:22:47;5.80;;;1.27;;
23990;SDS011;12205;50.600;4.608;2023-05-07T00:25:14;6.15;;;1.27;;
23990;SDS011;12205;50.600;4.608;2023-05-07T00:27:41;6.03;;;1.15;;
23990;SDS011;12205;50.600;4.608;2023-05-07T00:30:09;8.07;;;1.58;;
23990;SDS011;12205;50.600;4.608;2023-05-07T00:32:37;6.30;;;1.17;;
23990;SDS011;12205;50.600;4.608;2023-05-07T00:35:05;5.68;;;1.30;;
23990;SDS011;12205;50.600;4.608;2023-05-07T00:37:33;6.35;;;1.50;;
23990;SDS011;12205;50.600;4.608;2023-05-07T00:39:59;5.20;;;1.30;;
23990;SDS011;12205;50.600;4.608;2023-05-07T00:42:29;7.45;;;1.45;;
23990;SDS011;12205;50.600;4.608;2023-05-07T00:44:57;8.48;;;1.55;;
23990;SDS011;12205;50.600;4.608;2023-05-07T00:47:26;8.73;;;1.33;;
23990;SDS011;12205;50.600;4.608;2023-05-07T00:49:53;6.32;;;1.50;;
23990;SDS011;12205;50.600;4.608;2023-05-07T00:52:20;5.03;;;1.20;;
23990;SDS011;12205;50.600;4.608;2023-05-07T00:54:50;6.50;;;1.40;;
23990;SDS011;12205;50.600;4.608;2023-05-07T00:57:18;6.07;;;1.67;;
23990;SDS011;12205;50.600;4.608;2023-05-07T00:59:46;7.80;;;1.63;;
23990;SDS011;12205;50.600;4.608;2023-05-07T01:02:14;12.30;;;2.10;;
23990;SDS011;12205;50.600;4.608;2023-05-07T01:04:42;7.28;;;1.67;;
23990;SDS011;12205;50.600;4.608;2023-05-07T01:07:09;6.70;;;1.40;;
23990;SDS011;12205;50.600;4.608;2023-05-07T01:09:36;8.73;;;1.63;;
23990;SDS011;12205;50.600;4.608;2023-05-07T01:12:04;6.35;;;1.50;;
23990;SDS011;12205;50.600;4.608;2023-05-07T01:14:32;5.60;;;1.50;;
23990;SDS011;12205;50.600;4.608;2023-05-07T01:17:00;3.28;;;1.30;;
23990;SDS011;12205;50.600;4.608;2023-05-07T01:19:28;12.90;;;1.88;;
23990;SDS011;12205;50.600;4.608;2023-05-07T01:21:59;3.08;;;1.10;;
23990;SDS011;12205;50.600;4.608;2023-05-07T01:24:31;8.73;;;1.45;;
23990;SDS011;12205;50.600;4.608;2023-05-07T01:26:59;6.00;;;1.20;;
23990;SDS011;12205;50.600;4.608;2023-05-07T01:29:30;9.80;;;1.27;;
23990;SDS011;12205;50.600;4.608;2023-05-07T01:31:57;4.97;;;1.30;;
23990;SDS011;12205;50.600;4.608;2023-05-07T01:34:25;11.82;;;1.73;;
23990;SDS011;12205;50.600;4.608;2023-05-07T01:36:56;3.97;;;1.25;;
23990;SDS011;12205;50.600;4.608;2023-05-07T01:39:25;9.45;;;1.70;;
23990;SDS011;12205;50.600;4.608;2023-05-07T01:41:54;6.38;;;1.63;;
23990;SDS011;12205;50.600;4.608;2023-05-07T01:44:23;7.28;;;1.40;;
23990;SDS011;12205;50.600;4.608;2023-05-07T01:46:51;7.63;;;1.40;;
23990;SDS011;12205;50.600;4.608;2023-05-07T01:49:18;6.38;;;1.30;;
23990;SDS011;12205;50.600;4.608;2023-05-07T01:51:45;5.80;;;1.40;;
23990;SDS011;12205;50.600;4.608;2023-05-07T01:54:12;6.38;;;1.10;;
23990;SDS011;12205;50.600;4.608;2023-05-07T01:56:41;6.43;;;1.27;;
23990;SDS011;12205;50.600;4.608;2023-05-07T01:59:09;5.93;;;1.65;;
23990;SDS011;12205;50.600;4.608;2023-05-07T02:01:36;6.72;;;1.55;;
23990;SDS011;12205;50.600;4.608;2023-05-07T02:04:03;8.25;;;1.35;;
23990;SDS011;12205;50.600;4.608;2023-05-07T02:06:30;7.88;;;1.83;;
23990;SDS011;12205;50.600;4.608;2023-05-07T02:09:02;6.75;;;1.45;;
23990;SDS011;12205;50.600;4.608;2023-05-07T02:11:30;6.43;;;1.45;;
23990;SDS011;12205;50.600;4.608;2023-05-07T02:13:56;8.07;;;1.60;;
23990;SDS011;12205;50.600;4.608;2023-05-07T02:16:25;5.32;;;1.30;;
23990;SDS011;12205;50.600;4.608;2023-05-07T02:18:52;5.70;;;1.25;;
23990;SDS011;12205;50.600;4.608;2023-05-07T02:21:20;5.20;;;1.25;;
23990;SDS011;12205;50.600;4.608;2023-05-07T02:23:47;7.47;;;1.25;;
23990;SDS011;12205;50.600;4.608;2023-05-07T02:26:14;4.75;;;1.30;;
23990;SDS011;12205;50.600;4.608;2023-05-07T02:28:41;6.82;;;1.40;;
23990;SDS011;12205;50.600;4.608;2023-05-07T02:31:07;6.45;;;1.27;;
23990;SDS011;12205;50.600;4.608;2023-05-07T02:33:36;2.83;;;1.02;;
23990;SDS011;12205;50.600;4.608;2023-05-07T02:36:06;7.35;;;1.40;;
23990;SDS011;12205;50.600;4.608;2023-05-07T02:38:35;6.47;;;1.77;;
23990;SDS011;12205;50.600;4.608;2023-05-07T02:41:03;4.32;;;1.20;;
23990;SDS011;12205;50.600;4.608;2023-05-07T02:43:30;5.72;;;1.50;;
23990;SDS011;12205;50.600;4.608;2023-05-07T02:46:01;4.93;;;1.10;;
23990;SDS011;12205;50.600;4.608;2023-05-07T02:50:57;6.18;;;1.17;;
23990;SDS011;12205;50.600;4.608;2023-05-07T02:53:25;7.72;;;1.40;;
23990;SDS011;12205;50.600;4.608;2023-05-07T02:55:52;11.30;;;1.60;;
23990;SDS011;12205;50.600;4.608;2023-05-07T02:58:19;6.95;;;1.52;;
23990;SDS011;12205;50.600;4.608;2023-05-07T03:00:46;7.25;;;1.20;;
23990;SDS011;12205;50.600;4.608;2023-05-07T03:03:31;6.82;;;1.20;;
23990;SDS011;12205;50.600;4.608;2023-05-07T03:05:59;5.68;;;1.10;;
23990;SDS011;12205;50.600;4.608;2023-05-07T03:08:27;4.40;;;1.13;;
23990;SDS011;12205;50.600;4.608;2023-05-07T03:10:54;5.45;;;1.13;;
23990;SDS011;12205;50.600;4.608;2023-05-07T03:13:21;4.55;;;1.20;;
23990;SDS011;12205;50.600;4.608;2023-05-07T03:15:48;5.72;;;1.20;;
23990;SDS011;12205;50.600;4.608;2023-05-07T03:18:15;5.50;;;1.20;;
23990;SDS011;12205;50.600;4.608;2023-05-07T03:20:42;5.85;;;1.20;;
23990;SDS011;12205;50.600;4.608;2023-05-07T03:23:10;6.35;;;1.30;;
23990;SDS011;12205;50.600;4.608;2023-05-07T03:25:37;6.97;;;1.20;;
23990;SDS011;12205;50.600;4.608;2023-05-07T03:28:04;5.10;;;1.10;;
23990;SDS011;12205;50.600;4.608;2023-05-07T03:30:38;6.57;;;1.20;;
23990;SDS011;12205;50.600;4.608;2023-05-07T03:33:05;7.90;;;1.67;;
23990;SDS011;12205;50.600;4.608;2023-05-07T03:35:32;7.45;;;1.30;;
23990;SDS011;12205;50.600;4.608;2023-05-07T03:37:59;6.40;;;1.17;;
23990;SDS011;12205;50.600;4.608;2023-05-07T03:40:31;6.53;;;1.27;;
23990;SDS011;12205;50.600;4.608;2023-05-07T03:42:59;5.32;;;1.40;;
23990;SDS011;12205;50.600;4.608;2023-05-07T03:45:28;7.72;;;1.20;;
23990;SDS011;12205;50.600;4.608;2023-05-07T03:48:05;6.05;;;1.20;;
23990;SDS011;12205;50.600;4.608;2023-05-07T03:50:32;5.78;;;1.10;;
23990;SDS011;12205;50.600;4.608;2023-05-07T03:52:59;5.93;;;1.30;;
23990;SDS011;12205;50.600;4.608;2023-05-07T03:55:29;10.43;;;1.25;;
23990;SDS011;12205;50.600;4.608;2023-05-07T03:58:00;3.80;;;1.15;;
23990;SDS011;12205;50.600;4.608;2023-05-07T04:00:27;11.73;;;1.70;;
23990;SDS011;12205;50.600;4.608;2023-05-07T04:02:58;5.75;;;1.17;;
23990;SDS011;12205;50.600;4.608;2023-05-07T04:05:29;3.97;;;1.10;;
23990;SDS011;12205;50.600;4.608;2023-05-07T04:08:00;5.20;;;1.53;;
23990;SDS011;12205;50.600;4.608;2023-05-07T04:10:35;4.68;;;1.40;;
23990;SDS011;12205;50.600;4.608;2023-05-07T04:15:35;6.30;;;1.27;;
23990;SDS011;12205;50.600;4.608;2023-05-07T04:18:05;6.47;;;1.25;;
23990;SDS011;12205;50.600;4.608;2023-05-07T04:20:33;6.65;;;1.15;;
23990;SDS011;12205;50.600;4.608;2023-05-07T04:23:02;6.75;;;1.60;;
23990;SDS011;12205;50.600;4.608;2023-05-07T04:25:31;6.40;;;1.10;;
23990;SDS011;12205;50.600;4.608;2023-05-07T04:28:09;8.20;;;1.30;;
23990;SDS011;12205;50.600;4.608;2023-05-07T04:30:37;5.82;;;1.13;;
23990;SDS011;12205;50.600;4.608;2023-05-07T04:33:06;6.65;;;1.27;;
23990;SDS011;12205;50.600;4.608;2023-05-07T04:35:34;6.68;;;1.20;;
23990;SDS011;12205;50.600;4.608;2023-05-07T04:38:03;8.35;;;1.60;;
23990;SDS011;12205;50.600;4.608;2023-05-07T04:40:30;7.35;;;1.17;;
23990;SDS011;12205;50.600;4.608;2023-05-07T04:42:58;7.85;;;1.27;;
23990;SDS011;12205;50.600;4.608;2023-05-07T04:45:27;6.63;;;1.27;;
23990;SDS011;12205;50.600;4.608;2023-05-07T04:47:54;7.32;;;1.30;;
23990;SDS011;12205;50.600;4.608;2023-05-07T04:50:21;5.28;;;1.23;;
23990;SDS011;12205;50.600;4.608;2023-05-07T04:52:51;6.20;;;1.35;;
23990;SDS011;12205;50.600;4.608;2023-05-07T04:55:19;5.32;;;1.25;;
23990;SDS011;12205;50.600;4.608;2023-05-07T04:57:46;4.50;;;1.10;;
23990;SDS011;12205;50.600;4.608;2023-05-07T05:00:15;6.47;;;1.50;;
23990;SDS011;12205;50.600;4.608;2023-05-07T05:02:47;2.95;;;0.98;;
23990;SDS011;12205;50.600;4.608;2023-05-07T05:05:18;7.30;;;1.30;;
23990;SDS011;12205;50.600;4.608;2023-05-07T05:07:47;5.38;;;1.27;;
23990;SDS011;12205;50.600;4.608;2023-05-07T05:10:15;9.48;;;1.35;;
23990;SDS011;12205;50.600;4.608;2023-05-07T05:12:42;9.43;;;2.03;;
23990;SDS011;12205;50.600;4.608;2023-05-07T05:15:10;9.18;;;1.20;;
23990;SDS011;12205;50.600;4.608;2023-05-07T05:17:38;5.80;;;1.42;;
23990;SDS011;12205;50.600;4.608;2023-05-07T05:20:08;5.53;;;1.00;;
23990;SDS011;12205;50.600;4.608;2023-05-07T05:22:37;7.77;;;1.30;;
23990;SDS011;12205;50.600;4.608;2023-05-07T05:25:04;6.30;;;1.20;;
23990;SDS011;12205;50.600;4.608;2023-05-07T05:27:32;8.77;;;1.60;;
23990;SDS011;12205;50.600;4.608;2023-05-07T05:29:59;7.13;;;1.73;;
23990;SDS011;12205;50.600;4.608;2023-05-07T05:32:27;4.93;;;1.20;;
23990;SDS011;12205;50.600;4.608;2023-05-07T05:34:56;8.23;;;1.30;;
23990;SDS011;12205;50.600;4.608;2023-05-07T05:37:24;8.45;;;1.33;;
23990;SDS011;12205;50.600;4.608;2023-05-07T05:39:52;8.23;;;1.50;;
23990;SDS011;12205;50.600;4.608;2023-05-07T05:42:20;7.72;;;1.40;;
23990;SDS011;12205;50.600;4.608;2023-05-07T05:44:47;7.47;;;1.58;;
23990;SDS011;12205;50.600;4.608;2023-05-07T05:47:14;6.03;;;1.60;;
23990;SDS011;12205;50.600;4.608;2023-05-07T05:49:42;6.47;;;1.33;;
23990;SDS011;12205;50.600;4.608;2023-05-07T05:52:11;8.55;;;1.50;;
23990;SDS011;12205;50.600;4.608;2023-05-07T05:54:40;7.90;;;1.40;;
23990;SDS011;12205;50.600;4.608;2023-05-07T05:57:07;5.53;;;1.40;;
23990;SDS011;12205;50.600;4.608;2023-05-07T05:59:34;5.55;;;1.23;;
23990;SDS011;12205;50.600;4.608;2023-05-07T06:02:01;9.30;;;1.45;;
23990;SDS011;12205;50.600;4.608;2023-05-07T06:04:29;6.93;;;1.30;;
23990;SDS011;12205;50.600;4.608;2023-05-07T06:06:56;7.95;;;1.48;;
23990;SDS011;12205;50.600;4.608;2023-05-07T06:09:24;6.70;;;1.73;;
23990;SDS011;12205;50.600;4.608;2023-05-07T06:11:53;7.28;;;1.40;;
23990;SDS011;12205;50.600;4.608;2023-05-07T06:14:19;6.50;;;1.50;;
23990;SDS011;12205;50.600;4.608;2023-05-07T06:16:47;7.22;;;1.63;;
23990;SDS011;12205;50.600;4.608;2023-05-07T06:19:14;8.25;;;1.40;;
23990;SDS011;12205;50.600;4.608;2023-05-07T06:21:43;10.40;;;1.60;;
23990;SDS011;12205;50.600;4.608;2023-05-07T06:24:10;8.77;;;1.33;;
23990;SDS011;12205;50.600;4.608;2023-05-07T06:26:38;7.65;;;1.40;;
23990;SDS011;12205;50.600;4.608;2023-05-07T06:29:06;7.63;;;1.60;;
23990;SDS011;12205;50.600;4.608;2023-05-07T06:31:33;9.55;;;1.70;;
23990;SDS011;12205;50.600;4.608;2023-05-07T06:34:04;10.15;;;1.83;;
23990;SDS011;12205;50.600;4.608;2023-05-07T06:36:35;6.25;;;1.30;;
23990;SDS011;12205;50.600;4.608;2023-05-07T06:39:11;6.85;;;1.35;;
23990;SDS011;12205;50.600;4.608;2023-05-07T06:41:38;8.85;;;1.38;;
23990;SDS011;12205;50.600;4.608;2023-05-07T06:44:15;4.97;;;1.10;;
23990;SDS011;12205;50.600;4.608;2023-05-07T06:46:46;10.02;;;1.02;;
23990;SDS011;12205;50.600;4.608;2023-05-07T06:49:13;6.40;;;1.00;;
23990;SDS011;12205;50.600;4.608;2023-05-07T06:51:41;5.32;;;1.00;;
23990;SDS011;12205;50.600;4.608;2023-05-07T06:54:08;4.18;;;0.85;;
23990;SDS011;12205;50.600;4.608;2023-05-07T06:56:37;5.40;;;1.20;;
23990;SDS011;12205;50.600;4.608;2023-05-07T06:59:04;5.68;;;0.98;;
23990;SDS011;12205;50.600;4.608;2023-05-07T07:01:37;10.00;;;0.98;;
23990;SDS011;12205;50.600;4.608;2023-05-07T07:04:06;6.80;;;1.35;;
23990;SDS011;12205;50.600;4.608;2023-05-07T07:06:34;6.45;;;1.20;;
23990;SDS011;12205;50.600;4.608;2023-05-07T07:09:03;6.68;;;1.23;;
23990;SDS011;12205;50.600;4.608;2023-05-07T07:11:31;13.23;;;1.55;;
23990;SDS011;12205;50.600;4.608;2023-05-07T07:13:58;7.60;;;1.30;;
23990;SDS011;12205;50.600;4.608;2023-05-07T07:16:25;8.80;;;1.45;;
23990;SDS011;12205;50.600;4.608;2023-05-07T07:18:53;8.13;;;1.50;;
23990;SDS011;12205;50.600;4.608;2023-05-07T07:21:20;7.65;;;1.52;;
23990;SDS011;12205;50.600;4.608;2023-05-07T07:23:47;8.95;;;1.45;;
23990;SDS011;12205;50.600;4.608;2023-05-07T07:26:16;7.30;;;1.65;;
23990;SDS011;12205;50.600;4.608;2023-05-07T07:28:43;7.40;;;1.67;;
23990;SDS011;12205;50.600;4.608;2023-05-07T07:31:11;9.77;;;1.70;;
23990;SDS011;12205;50.600;4.608;2023-05-07T07:33:38;17.52;;;2.50;;
23990;SDS011;12205;50.600;4.608;2023-05-07T07:36:07;6.57;;;1.65;;
23990;SDS011;12205;50.600;4.608;2023-05-07T07:38:35;11.98;;;1.80;;
23990;SDS011;12205;50.600;4.608;2023-05-07T07:41:03;8.98;;;1.67;;
23990;SDS011;12205;50.600;4.608;2023-05-07T07:43:30;9.05;;;1.90;;
23990;SDS011;12205;50.600;4.608;2023-05-07T07:45:57;7.72;;;1.63;;
23990;SDS011;12205;50.600;4.608;2023-05-07T07:48:25;9.00;;;1.92;;
23990;SDS011;12205;50.600;4.608;2023-05-07T07:50:52;8.57;;;1.67;;
23990;SDS011;12205;50.600;4.608;2023-05-07T07:53:21;7.00;;;1.55;;
23990;SDS011;12205;50.600;4.608;2023-05-07T07:55:48;6.18;;;1.50;;
23990;SDS011;12205;50.600;4.608;2023-05-07T07:58:18;7.80;;;1.90;;
23990;SDS011;12205;50.600;4.608;2023-05-07T08:00:47;7.45;;;1.52;;
23990;SDS011;12205;50.600;4.608;2023-05-07T08:03:14;6.35;;;1.55;;
23990;SDS011;12205;50.600;4.608;2023-05-07T08:05:45;7.88;;;1.90;;
23990;SDS011;12205;50.600;4.608;2023-05-07T08:08:12;4.72;;;1.10;;
23990;SDS011;12205;50.600;4.608;2023-05-07T08:10:42;5.45;;;1.40;;
23990;SDS011;12205;50.600;4.608;2023-05-07T08:13:17;9.80;;;1.77;;
23990;SDS011;12205;50.600;4.608;2023-05-07T08:15:44;8.18;;;1.65;;
23990;SDS011;12205;50.600;4.608;2023-05-07T08:18:12;5.57;;;1.65;;
23990;SDS011;12205;50.600;4.608;2023-05-07T08:20:39;7.47;;;1.40;;
23990;SDS011;12205;50.600;4.608;2023-05-07T08:23:10;9.15;;;1.85;;
23990;SDS011;12205;50.600;4.608;2023-05-07T08:25:39;6.88;;;1.63;;
23990;SDS011;12205;50.600;4.608;2023-05-07T08:28:09;6.57;;;1.45;;
23990;SDS011;12205;50.600;4.608;2023-05-07T08:30:37;4.95;;;1.70;;
23990;SDS011;12205;50.600;4.608;2023-05-07T08:33:04;6.75;;;1.45;;
23990;SDS011;12205;50.600;4.608;2023-05-07T08:35:31;5.30;;;1.42;;
23990;SDS011;12205;50.600;4.608;2023-05-07T08:37:58;6.85;;;1.67;;
23990;SDS011;12205;50.600;4.608;2023-05-07T08:40:26;6.40;;;1.58;;
23990;SDS011;12205;50.600;4.608;2023-05-07T08:42:55;6.63;;;1.50;;
23990;SDS011;12205;50.600;4.608;2023-05-07T08:45:24;9.73;;;1.80;;
23990;SDS011;12205;50.600;4.608;2023-05-07T08:47:55;5.50;;;1.50;;
23990;SDS011;12205;50.600;4.608;2023-05-07T08:50:30;7.57;;;1.40;;
23990;SDS011;12205;50.600;4.608;2023-05-07T08:52:58;8.40;;;1.63;;
23990;SDS011;12205;50.600;4.608;2023-05-07T08:55:26;5.80;;;1.50;;
23990;SDS011;12205;50.600;4.608;2023-05-07T08:57:55;8.52;;;1.65;;
23990;SDS011;12205;50.600;4.608;2023-05-07T09:00:22;6.25;;;1.63;;
23990;SDS011;12205;50.600;4.608;2023-05-07T09:02:53;7.35;;;1.50;;
23990;SDS011;12205;50.600;4.608;2023-05-07T09:05:20;7.10;;;1.80;;
23990;SDS011;12205;50.600;4.608;2023-05-07T09:07:47;7.60;;;1.90;;
23990;SDS011;12205;50.600;4.608;2023-05-07T09:10:16;4.78;;;1.40;;
23990;SDS011;12205;50.600;4.608;2023-05-07T09:12:46;7.72;;;1.70;;
23990;SDS011;12205;50.600;4.608;2023-05-07T09:15:14;6.93;;;1.67;;
23990;SDS011;12205;50.600;4.608;2023-05-07T09:17:44;4.55;;;1.50;;
23990;SDS011;12205;50.600;4.608;2023-05-07T09:20:11;9.02;;;1.88;;
23990;SDS011;12205;50.600;4.608;2023-05-07T09:22:39;6.05;;;1.80;;
23990;SDS011;12205;50.600;4.608;2023-05-07T09:25:09;7.30;;;1.85;;
23990;SDS011;12205;50.600;4.608;2023-05-07T09:27:38;7.45;;;1.50;;
23990;SDS011;12205;50.600;4.608;2023-05-07T09:30:05;6.82;;;1.60;;
23990;SDS011;12205;50.600;4.608;2023-05-07T09:32:34;4.43;;;1.23;;
23990;SDS011;12205;50.600;4.608;2023-05-07T09:35:05;5.90;;;1.30;;
23990;SDS011;12205;50.600;4.608;2023-05-07T09:37:40;7.38;;;1.40;;
23990;SDS011;12205;50.600;4.608;2023-05-07T09:40:08;5.75;;;1.25;;
23990;SDS011;12205;50.600;4.608;2023-05-07T09:42:47;5.45;;;1.20;;
23990;SDS011;12205;50.600;4.608;2023-05-07T09:45:15;4.38;;;1.10;;
23990;SDS011;12205;50.600;4.608;2023-05-07T09:47:43;6.95;;;1.20;;
23990;SDS011;12205;50.600;4.608;2023-05-07T09:50:12;4.60;;;1.05;;
23990;SDS011;12205;50.600;4.608;2023-05-07T09:55:10;3.22;;;0.90;;
23990;SDS011;12205;50.600;4.608;2023-05-07T09:57:39;5.38;;;1.08;;
23990;SDS011;12205;50.600;4.608;2023-05-07T10:00:08;2.65;;;0.80;;
23990;SDS011;12205;50.600;4.608;2023-05-07T10:02:46;2.75;;;0.73;;
23990;SDS011;12205;50.600;4.608;2023-05-07T10:05:19;3.42;;;0.77;;
23990;SDS011;12205;50.600;4.608;2023-05-07T10:07:46;8.77;;;0.90;;
23990;SDS011;12205;50.600;4.608;2023-05-07T10:10:14;3.60;;;0.80;;
23990;SDS011;12205;50.600;4.608;2023-05-07T10:12:44;3.85;;;0.68;;
23990;SDS011;12205;50.600;4.608;2023-05-07T10:15:17;3.08;;;0.80;;
23990;SDS011;12205;50.600;4.608;2023-05-07T10:17:49;3.55;;;0.80;;
23990;SDS011;12205;50.600;4.608;2023-05-07T10:20:20;4.60;;;0.82;;
23990;SDS011;12205;50.600;4.608;2023-05-07T10:22:48;5.05;;;1.00;;
23990;SDS011;12205;50.600;4.608;2023-05-07T10:25:23;3.03;;;0.70;;
23990;SDS011;12205;50.600;4.608;2023-05-07T10:27:55;3.58;;;0.70;;
23990;SDS011;12205;50.600;4.608;2023-05-07T10:30:26;3.00;;;1.00;;
23990;SDS011;12205;50.600;4.608;2023-05-07T10:33:01;8.65;;;1.65;;
23990;SDS011;12205;50.600;4.608;2023-05-07T10:35:38;5.45;;;1.10;;
23990;SDS011;12205;50.600;4.608;2023-05-07T10:38:07;5.55;;;0.90;;
23990;SDS011;12205;50.600;4.608;2023-05-07T10:40:38;7.15;;;1.17;;
23990;SDS011;12205;50.600;4.608;2023-05-07T10:43:06;6.63;;;0.93;;
23990;SDS011;12205;50.600;4.608;2023-05-07T10:45:39;4.30;;;0.68;;
23990;SDS011;12205;50.600;4.608;2023-05-07T10:48:08;9.98;;;1.05;;
23990;SDS011;12205;50.600;4.608;2023-05-07T10:50:37;3.85;;;0.80;;
23990;SDS011;12205;50.600;4.608;2023-05-07T10:53:21;3.85;;;0.70;;
23990;SDS011;12205;50.600;4.608;2023-05-07T10:56:24;4.97;;;0.82;;
23990;SDS011;12205;50.600;4.608;2023-05-07T11:02:07;3.15;;;0.75;;
23990;SDS011;12205;50.600;4.608;2023-05-07T11:04:42;4.93;;;0.90;;
23990;SDS011;12205;50.600;4.608;2023-05-07T11:07:32;4.93;;;0.80;;
23990;SDS011;12205;50.600;4.608;2023-05-07T11:10:08;2.63;;;0.60;;
23990;SDS011;12205;50.600;4.608;2023-05-07T11:12:53;4.38;;;0.80;;
23990;SDS011;12205;50.600;4.608;2023-05-07T11:15:33;6.40;;;0.77;;
23990;SDS011;12205;50.600;4.608;2023-05-07T11:18:21;6.25;;;0.60;;
23990;SDS011;12205;50.600;4.608;2023-05-07T11:20:52;4.53;;;0.55;;
23990;SDS011;12205;50.600;4.608;2023-05-07T11:23:57;6.70;;;0.60;;
23990;SDS011;12205;50.600;4.608;2023-05-07T11:26:42;7.80;;;0.77;;
23990;SDS011;12205;50.600;4.608;2023-05-07T11:29:10;3.33;;;0.60;;
23990;SDS011;12205;50.600;4.608;2023-05-07T11:31:39;3.05;;;0.60;;
23990;SDS011;12205;50.600;4.608;2023-05-07T11:34:07;3.90;;;0.63;;
23990;SDS011;12205;50.600;4.608;2023-05-07T11:36:35;4.43;;;0.55;;
23990;SDS011;12205;50.600;4.608;2023-05-07T11:42:04;4.05;;;0.68;;
23990;SDS011;12205;50.600;4.608;2023-05-07T11:44:42;3.00;;;0.47;;
23990;SDS011;12205;50.600;4.608;2023-05-07T11:47:10;2.95;;;0.40;;
23990;SDS011;12205;50.600;4.608;2023-05-07T11:49:43;2.63;;;0.35;;
23990;SDS011;12205;50.600;4.608;2023-05-07T11:52:10;2.70;;;0.50;;
23990;SDS011;12205;50.600;4.608;2023-05-07T11:54:37;2.20;;;0.30;;
23990;SDS011;12205;50.600;4.608;2023-05-07T11:57:05;4.22;;;0.55;;
23990;SDS011;12205;50.600;4.608;2023-05-07T11:59:37;4.03;;;0.50;;
23990;SDS011;12205;50.600;4.608;2023-05-07T12:02:06;3.90;;;0.50;;
23990;SDS011;12205;50.600;4.608;2023-05-07T12:04:33;2.22;;;0.50;;
23990;SDS011;12205;50.600;4.608;2023-05-07T12:07:00;2.25;;;0.50;;
23990;SDS011;12205;50.600;4.608;2023-05-07T12:09:27;1.42;;;0.30;;
23990;SDS011;12205;50.600;4.608;2023-05-07T12:11:54;2.38;;;0.50;;
23990;SDS011;12205;50.600;4.608;2023-05-07T12:14:26;3.03;;;0.50;;
23990;SDS011;12205;50.600;4.608;2023-05-07T12:16:54;2.90;;;0.50;;
23990;SDS011;12205;50.600;4.608;2023-05-07T12:19:21;2.63;;;0.57;;
23990;SDS011;12205;50.600;4.608;2023-05-07T12:21:48;4.65;;;0.70;;
23990;SDS011;12205;50.600;4.608;2023-05-07T12:24:15;2.65;;;0.60;;
23990;SDS011;12205;50.600;4.608;2023-05-07T12:26:43;2.25;;;0.60;;
23990;SDS011;12205;50.600;4.608;2023-05-07T12:29:10;3.05;;;0.60;;
23990;SDS011;12205;50.600;4.608;2023-05-07T12:31:41;2.22;;;0.50;;
23990;SDS011;12205;50.600;4.608;2023-05-07T12:34:08;4.05;;;0.68;;
23990;SDS011;12205;50.600;4.608;2023-05-07T12:36:37;5.30;;;0.88;;
23990;SDS011;12205;50.600;4.608;2023-05-07T12:39:04;3.53;;;0.70;;
23990;SDS011;12205;50.600;4.608;2023-05-07T12:41:34;3.22;;;0.60;;
23990;SDS011;12205;50.600;4.608;2023-05-07T12:44:03;3.15;;;0.70;;
23990;SDS011;12205;50.600;4.608;2023-05-07T12:46:31;2.78;;;0.70;;
23990;SDS011;12205;50.600;4.608;2023-05-07T12:48:59;2.65;;;0.77;;
23990;SDS011;12205;50.600;4.608;2023-05-07T12:51:27;3.13;;;0.57;;
23990;SDS011;12205;50.600;4.608;2023-05-07T12:53:55;4.38;;;0.90;;
23990;SDS011;12205;50.600;4.608;2023-05-07T12:56:23;3.47;;;1.00;;
23990;SDS011;12205;50.600;4.608;2023-05-07T12:58:50;2.75;;;0.70;;
23990;SDS011;12205;50.600;4.608;2023-05-07T13:01:16;2.60;;;0.70;;
23990;SDS011;12205;50.600;4.608;2023-05-07T13:03:47;3.05;;;0.85;;
23990;SDS011;12205;50.600;4.608;2023-05-07T13:06:16;3.33;;;0.98;;
23990;SDS011;12205;50.600;4.608;2023-05-07T13:08:43;4.35;;;0.77;;
23990;SDS011;12205;50.600;4.608;2023-05-07T13:11:10;3.22;;;0.98;;
23990;SDS011;12205;50.600;4.608;2023-05-07T13:13:38;3.97;;;1.10;;
23990;SDS011;12205;50.600;4.608;2023-05-07T13:16:07;4.18;;;1.15;;
23990;SDS011;12205;50.600;4.608;2023-05-07T13:18:35;3.42;;;0.90;;
23990;SDS011;12205;50.600;4.608;2023-05-07T13:21:02;3.00;;;0.80;;
23990;SDS011;12205;50.600;4.608;2023-05-07T13:23:30;3.95;;;0.93;;
23990;SDS011;12205;50.600;4.608;2023-05-07T13:25:57;3.45;;;1.00;;
23990;SDS011;12205;50.600;4.608;2023-05-07T13:28:24;5.40;;;1.05;;
23990;SDS011;12205;50.600;4.608;2023-05-07T13:30:52;3.88;;;1.00;;
23990;SDS011;12205;50.600;4.608;2023-05-07T13:33:19;4.85;;;1.00;;
23990;SDS011;12205;50.600;4.608;2023-05-07T13:35:46;3.58;;;0.98;;
23990;SDS011;12205;50.600;4.608;2023-05-07T13:38:13;3.30;;;0.80;;
23990;SDS011;12205;50.600;4.608;2023-05-07T13:40:42;4.05;;;1.10;;
23990;SDS011;12205;50.600;4.608;2023-05-07T13:43:09;5.25;;;1.33;;
23990;SDS011;12205;50.600;4.608;2023-05-07T13:45:36;4.43;;;1.30;;
23990;SDS011;12205;50.600;4.608;2023-05-07T13:48:03;3.25;;;1.02;;
23990;SDS011;12205;50.600;4.608;2023-05-07T13:50:30;4.40;;;1.10;;
23990;SDS011;12205;50.600;4.608;2023-05-07T13:52:57;3.88;;;1.10;;
23990;SDS011;12205;50.600;4.608;2023-05-07T13:55:24;1.73;;;0.60;;
23990;SDS011;12205;50.600;4.608;2023-05-07T13:57:56;2.40;;;0.90;;
23990;SDS011;12205;50.600;4.608;2023-05-07T14:00:24;3.00;;;0.68;;
23990;SDS011;12205;50.600;4.608;2023-05-07T14:02:51;5.22;;;1.10;;
23990;SDS011;12205;50.600;4.608;2023-05-07T14:05:18;3.38;;;0.90;;
23990;SDS011;12205;50.600;4.608;2023-05-07T14:07:46;4.30;;;0.77;;
23990;SDS011;12205;50.600;4.608;2023-05-07T14:10:14;3.35;;;0.80;;
23990;SDS011;12205;50.600;4.608;2023-05-07T14:12:41;3.20;;;0.70;;
23990;SDS011;12205;50.600;4.608;2023-05-07T14:15:10;3.60;;;0.90;;
23990;SDS011;12205;50.600;4.608;2023-05-07T14:17:37;2.72;;;0.90;;
23990;SDS011;12205;50.600;4.608;2023-05-07T14:20:05;2.45;;;0.90;;
23990;SDS011;12205;50.600;4.608;2023-05-07T14:22:32;4.47;;;0.85;;
23990;SDS011;12205;50.600;4.608;2023-05-07T14:24:59;2.72;;;0.80;;
23990;SDS011;12205;50.600;4.608;2023-05-07T14:27:26;2.22;;;0.80;;
23990;SDS011;12205;50.600;4.608;2023-05-07T14:29:53;3.97;;;0.70;;
23990;SDS011;12205;50.600;4.608;2023-05-07T14:32:21;3.72;;;0.80;;
23990;SDS011;12205;50.600;4.608;2023-05-07T14:34:48;2.50;;;0.70;;
23990;SDS011;12205;50.600;4.608;2023-05-07T14:37:15;2.78;;;0.60;;
23990;SDS011;12205;50.600;4.608;2023-05-07T14:39:44;4.22;;;0.70;;
23990;SDS011;12205;50.600;4.608;2023-05-07T14:42:11;2.88;;;0.80;;
23990;SDS011;12205;50.600;4.608;2023-05-07T14:44:38;4.07;;;0.80;;
23990;SDS011;12205;50.600;4.608;2023-05-07T14:47:06;2.10;;;0.65;;
23990;SDS011;12205;50.600;4.608;2023-05-07T14:49:35;2.53;;;0.63;;
23990;SDS011;12205;50.600;4.608;2023-05-07T14:52:02;2.58;;;0.50;;
23990;SDS011;12205;50.600;4.608;2023-05-07T14:54:33;1.92;;;0.70;;
23990;SDS011;12205;50.600;4.608;2023-05-07T14:57:00;1.60;;;0.40;;
23990;SDS011;12205;50.600;4.608;2023-05-07T14:59:27;6.55;;;0.63;;
23990;SDS011;12205;50.600;4.608;2023-05-07T15:01:54;1.38;;;0.40;;
23990;SDS011;12205;50.600;4.608;2023-05-07T15:04:21;2.78;;;0.40;;
23990;SDS011;12205;50.600;4.608;2023-05-07T15:06:49;1.40;;;0.40;;
23990;SDS011;12205;50.600;4.608;2023-05-07T15:09:17;2.15;;;0.55;;
23990;SDS011;12205;50.600;4.608;2023-05-07T15:11:44;1.58;;;0.40;;